sensor_id;sensor_type;location;lat;lon;timestamp;pressure;altitude;pressure_sealevel;temperature;humidity
55291;BME280;41155;39.768;2.712;2023-02-07T00:00:43;101742.75;;;9.79;100.00
55291;BME280;41155;39.768;2.712;2023-02-07T00:03:08;101800.34;;;10.16;100.00
55291;BME280;41155;39.768;2.712;2023-02-07T00:05:34;101800.91;;;10.00;100.00
55291;BME280;41155;39.768;2.712;2023-02-07T00:08:03;101799.84;;;10.01;100.00
55291;BME280;41155;39.768;2.712;2023-02-07T00:10:29;101797.75;;;10.03;100.00
55291;BME280;41155;39.768;2.712;2023-02-07T00:12:54;101795.84;;;10.10;100.00
55291;BME280;41155;39.768;2.712;2023-02-07T00:15:20;101778.22;;;10.07;100.00
55291;BME280;41155;39.768;2.712;2023-02-07T00:17:45;101798.75;;;10.08;100.00
55291;BME280;41155;39.768;2.712;2023-02-07T00:20:11;101797.25;;;10.12;100.00
55291;BME280;41155;39.768;2.712;2023-02-07T00:22:37;101775.06;;;10.10;100.00
55291;BME280;41155;39.768;2.712;2023-02-07T00:25:03;101785.25;;;10.08;100.00
55291;BME280;41155;39.768;2.712;2023-02-07T00:27:28;101780.22;;;10.12;100.00
55291;BME280;41155;39.768;2.712;2023-02-07T00:29:54;101783.38;;;10.09;100.00
55291;BME280;41155;39.768;2.712;2023-02-07T00:32:19;101781.91;;;10.13;100.00
55291;BME280;41155;39.768;2.712;2023-02-07T00:34:47;101783.97;;;10.11;100.00
55291;BME280;41155;39.768;2.712;2023-02-07T00:37:14;101775.81;;;10.17;100.00
55291;BME280;41155;39.768;2.712;2023-02-07T00:39:40;101782.44;;;10.22;100.00
55291;BME280;41155;39.768;2.712;2023-02-07T00:42:06;101778.06;;;10.21;100.00
55291;BME280;41155;39.768;2.712;2023-02-07T00:44:31;101775.38;;;10.21;100.00
55291;BME280;41155;39.768;2.712;2023-02-07T00:46:57;101769.97;;;10.21;100.00
55291;BME280;41155;39.768;2.712;2023-02-07T00:49:23;101759.78;;;10.23;100.00
55291;BME280;41155;39.768;2.712;2023-02-07T00:51:49;101759.53;;;10.31;100.00
55291;BME280;41155;39.768;2.712;2023-02-07T00:54:14;101748.38;;;10.27;100.00
55291;BME280;41155;39.768;2.712;2023-02-07T00:56:40;101747.94;;;10.24;100.00
55291;BME280;41155;39.768;2.712;2023-02-07T00:59:05;101742.31;;;10.25;100.00
55291;BME280;41155;39.768;2.712;2023-02-07T01:01:34;101742.53;;;10.24;100.00
55291;BME280;41155;39.768;2.712;2023-02-07T01:03:59;101721.91;;;10.11;100.00
55291;BME280;41155;39.768;2.712;2023-02-07T01:06:26;101727.47;;;10.16;100.00
55291;BME280;41155;39.768;2.712;2023-02-07T01:08:57;101740.63;;;10.31;100.00
55291;BME280;41155;39.768;2.712;2023-02-07T01:11:23;101741.72;;;10.23;100.00
55291;BME280;41155;39.768;2.712;2023-02-07T01:13:48;101738.41;;;10.21;100.00
55291;BME280;41155;39.768;2.712;2023-02-07T01:16:23;101734.75;;;10.15;100.00
55291;BME280;41155;39.768;2.712;2023-02-07T01:18:50;101743.88;;;10.14;100.00
55291;BME280;41155;39.768;2.712;2023-02-07T01:21:21;101745.75;;;10.14;100.00
55291;BME280;41155;39.768;2.712;2023-02-07T01:23:47;101741.50;;;10.25;100.00
55291;BME280;41155;39.768;2.712;2023-02-07T01:26:12;101744.25;;;10.18;100.00
55291;BME280;41155;39.768;2.712;2023-02-07T01:28:38;101742.59;;;10.17;100.00
55291;BME280;41155;39.768;2.712;2023-02-07T01:31:08;101732.47;;;10.12;100.00
55291;BME280;41155;39.768;2.712;2023-02-07T01:33:34;101735.94;;;10.19;100.00
55291;BME280;41155;39.768;2.712;2023-02-07T01:36:08;101727.19;;;10.24;100.00
55291;BME280;41155;39.768;2.712;2023-02-07T01:38:34;101726.88;;;10.14;100.00
55291;BME280;41155;39.768;2.712;2023-02-07T01:40:59;101721.78;;;10.24;100.00
55291;BME280;41155;39.768;2.712;2023-02-07T01:43:25;101720.81;;;10.18;100.00
55291;BME280;41155;39.768;2.712;2023-02-07T01:45:50;101715.16;;;10.20;100.00
55291;BME280;41155;39.768;2.712;2023-02-07T01:48:19;101719.75;;;10.19;100.00
55291;BME280;41155;39.768;2.712;2023-02-07T01:50:50;101710.59;;;10.21;100.00
55291;BME280;41155;39.768;2.712;2023-02-07T01:53:18;101712.19;;;10.10;100.00
55291;BME280;41155;39.768;2.712;2023-02-07T01:55:47;101710.88;;;10.12;100.00
55291;BME280;41155;39.768;2.712;2023-02-07T01:58:13;101716.44;;;10.17;100.00
55291;BME280;41155;39.768;2.712;2023-02-07T02:00:39;101707.03;;;10.27;100.00
55291;BME280;41155;39.768;2.712;2023-02-07T02:03:05;101711.03;;;10.17;100.00
55291;BME280;41155;39.768;2.712;2023-02-07T02:05:31;101710.81;;;10.19;100.00
55291;BME280;41155;39.768;2.712;2023-02-07T02:07:58;101688.19;;;10.20;100.00
55291;BME280;41155;39.768;2.712;2023-02-07T02:10:31;101689.97;;;10.26;100.00
55291;BME280;41155;39.768;2.712;2023-02-07T02:13:14;101682.78;;;10.20;100.00
55291;BME280;41155;39.768;2.712;2023-02-07T02:23:22;101671.47;;;10.30;100.00
55291;BME280;41155;39.768;2.712;2023-02-07T02:32:05;101650.75;;;10.24;100.00
55291;BME280;41155;39.768;2.712;2023-02-07T02:35:04;101637.50;;;10.22;100.00
55291;BME280;41155;39.768;2.712;2023-02-07T02:40:24;101637.88;;;10.26;100.00
55291;BME280;41155;39.768;2.712;2023-02-07T02:46:09;101646.75;;;10.33;100.00
55291;BME280;41155;39.768;2.712;2023-02-07T02:48:36;101658.38;;;10.33;100.00
55291;BME280;41155;39.768;2.712;2023-02-07T02:51:03;101660.00;;;10.34;100.00
55291;BME280;41155;39.768;2.712;2023-02-07T02:53:29;101648.75;;;10.37;100.00
55291;BME280;41155;39.768;2.712;2023-02-07T03:01:35;101643.59;;;10.36;100.00
55291;BME280;41155;39.768;2.712;2023-02-07T03:04:30;101639.84;;;10.37;100.00
55291;BME280;41155;39.768;2.712;2023-02-07T03:09:57;101645.59;;;10.22;100.00
55291;BME280;41155;39.768;2.712;2023-02-07T03:18:03;101624.78;;;9.92;100.00
55291;BME280;41155;39.768;2.712;2023-02-07T03:20:34;101650.94;;;10.10;100.00
55291;BME280;41155;39.768;2.712;2023-02-07T03:23:01;101640.13;;;10.10;100.00
55291;BME280;41155;39.768;2.712;2023-02-07T03:25:30;101610.75;;;10.02;100.00
55291;BME280;41155;39.768;2.712;2023-02-07T03:27:55;101623.13;;;10.10;100.00
55291;BME280;41155;39.768;2.712;2023-02-07T03:30:23;101617.94;;;10.08;100.00
55291;BME280;41155;39.768;2.712;2023-02-07T03:32:55;101614.84;;;10.23;100.00
55291;BME280;41155;39.768;2.712;2023-02-07T03:35:28;101612.16;;;10.23;100.00
55291;BME280;41155;39.768;2.712;2023-02-07T03:37:58;101616.28;;;10.26;100.00
55291;BME280;41155;39.768;2.712;2023-02-07T03:40:27;101607.22;;;10.02;100.00
55291;BME280;41155;39.768;2.712;2023-02-07T03:43:09;101601.91;;;9.95;100.00
55291;BME280;41155;39.768;2.712;2023-02-07T03:45:37;101602.28;;;9.99;100.00
55291;BME280;41155;39.768;2.712;2023-02-07T03:48:03;101611.75;;;9.89;100.00
55291;BME280;41155;39.768;2.712;2023-02-07T03:50:28;101606.56;;;9.88;100.00
55291;BME280;41155;39.768;2.712;2023-02-07T03:52:53;101613.06;;;10.17;100.00
55291;BME280;41155;39.768;2.712;2023-02-07T03:55:22;101586.59;;;9.89;100.00
55291;BME280;41155;39.768;2.712;2023-02-07T03:57:47;101613.66;;;9.82;100.00
55291;BME280;41155;39.768;2.712;2023-02-07T04:00:13;101612.16;;;9.86;100.00
55291;BME280;41155;39.768;2.712;2023-02-07T04:02:40;101604.50;;;9.83;100.00
55291;BME280;41155;39.768;2.712;2023-02-07T04:05:05;101618.63;;;9.85;100.00
55291;BME280;41155;39.768;2.712;2023-02-07T04:07:31;101602.94;;;9.94;100.00
55291;BME280;41155;39.768;2.712;2023-02-07T04:09:57;101618.84;;;9.84;100.00
55291;BME280;41155;39.768;2.712;2023-02-07T04:12:22;101617.03;;;9.78;100.00
55291;BME280;41155;39.768;2.712;2023-02-07T04:14:47;101611.50;;;9.72;100.00
55291;BME280;41155;39.768;2.712;2023-02-07T04:17:13;101633.25;;;9.96;100.00
55291;BME280;41155;39.768;2.712;2023-02-07T04:19:38;101635.63;;;9.86;100.00
55291;BME280;41155;39.768;2.712;2023-02-07T04:22:05;101634.44;;;10.00;100.00
55291;BME280;41155;39.768;2.712;2023-02-07T04:24:30;101587.19;;;9.54;100.00
55291;BME280;41155;39.768;2.712;2023-02-07T04:26:58;101632.63;;;9.76;100.00
55291;BME280;41155;39.768;2.712;2023-02-07T04:29:23;101613.75;;;9.76;100.00
55291;BME280;41155;39.768;2.712;2023-02-07T04:31:49;101617.00;;;9.59;100.00
55291;BME280;41155;39.768;2.712;2023-02-07T04:34:14;101608.63;;;9.49;100.00
55291;BME280;41155;39.768;2.712;2023-02-07T04:36:40;101622.16;;;9.42;100.00
55291;BME280;41155;39.768;2.712;2023-02-07T04:39:05;101610.56;;;9.60;100.00
55291;BME280;41155;39.768;2.712;2023-02-07T04:41:31;101603.06;;;9.44;100.00
55291;BME280;41155;39.768;2.712;2023-02-07T04:43:57;101612.53;;;9.28;100.00
55291;BME280;41155;39.768;2.712;2023-02-07T04:46:22;101609.06;;;9.21;100.00
55291;BME280;41155;39.768;2.712;2023-02-07T04:48:48;101608.72;;;9.36;100.00
55291;BME280;41155;39.768;2.712;2023-02-07T04:51:13;101584.91;;;9.33;100.00
55291;BME280;41155;39.768;2.712;2023-02-07T04:53:39;101600.75;;;9.22;100.00
55291;BME280;41155;39.768;2.712;2023-02-07T04:56:05;101613.25;;;8.92;100.00
55291;BME280;41155;39.768;2.712;2023-02-07T04:58:31;101628.97;;;8.95;100.00
55291;BME280;41155;39.768;2.712;2023-02-07T05:00:56;101618.00;;;8.90;100.00
55291;BME280;41155;39.768;2.712;2023-02-07T05:03:22;101622.22;;;8.79;100.00
55291;BME280;41155;39.768;2.712;2023-02-07T05:05:48;101606.53;;;8.69;100.00
55291;BME280;41155;39.768;2.712;2023-02-07T05:08:13;101615.75;;;8.55;100.00
55291;BME280;41155;39.768;2.712;2023-02-07T05:10:39;101613.22;;;8.60;100.00
55291;BME280;41155;39.768;2.712;2023-02-07T05:13:05;101607.75;;;8.73;100.00
55291;BME280;41155;39.768;2.712;2023-02-07T05:15:31;101589.59;;;8.94;100.00
55291;BME280;41155;39.768;2.712;2023-02-07T05:17:57;101598.47;;;9.01;100.00
55291;BME280;41155;39.768;2.712;2023-02-07T05:20:24;101600.06;;;9.09;100.00
55291;BME280;41155;39.768;2.712;2023-02-07T05:22:50;101595.66;;;9.14;100.00
55291;BME280;41155;39.768;2.712;2023-02-07T05:25:16;101603.19;;;9.05;100.00
55291;BME280;41155;39.768;2.712;2023-02-07T05:27:42;101588.19;;;8.85;100.00
55291;BME280;41155;39.768;2.712;2023-02-07T05:30:08;101599.22;;;8.76;100.00
55291;BME280;41155;39.768;2.712;2023-02-07T05:32:34;101591.50;;;8.87;100.00
55291;BME280;41155;39.768;2.712;2023-02-07T05:35:18;101611.66;;;9.09;100.00
55291;BME280;41155;39.768;2.712;2023-02-07T05:37:43;101626.50;;;9.18;100.00
55291;BME280;41155;39.768;2.712;2023-02-07T05:40:09;101630.78;;;9.01;100.00
55291;BME280;41155;39.768;2.712;2023-02-07T05:42:37;101618.06;;;9.08;100.00
55291;BME280;41155;39.768;2.712;2023-02-07T05:45:03;101616.13;;;8.90;100.00
55291;BME280;41155;39.768;2.712;2023-02-07T05:47:29;101629.91;;;9.07;100.00
55291;BME280;41155;39.768;2.712;2023-02-07T05:49:54;101626.72;;;8.92;100.00
55291;BME280;41155;39.768;2.712;2023-02-07T05:52:19;101618.94;;;9.02;100.00
55291;BME280;41155;39.768;2.712;2023-02-07T05:54:45;101610.09;;;8.95;100.00
55291;BME280;41155;39.768;2.712;2023-02-07T05:57:10;101635.28;;;9.07;100.00
55291;BME280;41155;39.768;2.712;2023-02-07T05:59:36;101636.09;;;9.08;100.00
55291;BME280;41155;39.768;2.712;2023-02-07T06:02:01;101614.69;;;8.88;100.00
55291;BME280;41155;39.768;2.712;2023-02-07T06:04:27;101628.69;;;9.03;100.00
55291;BME280;41155;39.768;2.712;2023-02-07T06:06:52;101602.16;;;8.75;100.00
55291;BME280;41155;39.768;2.712;2023-02-07T06:09:18;101634.78;;;8.60;100.00
55291;BME280;41155;39.768;2.712;2023-02-07T06:11:43;101610.72;;;8.65;100.00
55291;BME280;41155;39.768;2.712;2023-02-07T06:14:09;101640.16;;;8.92;100.00
55291;BME280;41155;39.768;2.712;2023-02-07T06:16:34;101631.66;;;8.95;100.00
55291;BME280;41155;39.768;2.712;2023-02-07T06:19:00;101621.97;;;8.87;100.00
55291;BME280;41155;39.768;2.712;2023-02-07T06:21:25;101618.56;;;8.98;100.00
55291;BME280;41155;39.768;2.712;2023-02-07T06:23:51;101639.34;;;9.23;100.00
55291;BME280;41155;39.768;2.712;2023-02-07T06:26:17;101643.94;;;9.16;100.00
55291;BME280;41155;39.768;2.712;2023-02-07T06:28:42;101638.91;;;8.94;100.00
55291;BME280;41155;39.768;2.712;2023-02-07T06:31:08;101632.28;;;8.97;100.00
55291;BME280;41155;39.768;2.712;2023-02-07T06:33:33;101613.41;;;8.97;100.00
55291;BME280;41155;39.768;2.712;2023-02-07T06:35:59;101606.72;;;9.06;100.00
55291;BME280;41155;39.768;2.712;2023-02-07T06:38:24;101633.22;;;9.09;100.00
55291;BME280;41155;39.768;2.712;2023-02-07T06:40:50;101620.06;;;8.94;100.00
55291;BME280;41155;39.768;2.712;2023-02-07T06:43:15;101626.25;;;8.63;100.00
55291;BME280;41155;39.768;2.712;2023-02-07T06:45:41;101601.56;;;8.28;100.00
55291;BME280;41155;39.768;2.712;2023-02-07T06:48:07;101598.25;;;8.26;100.00
55291;BME280;41155;39.768;2.712;2023-02-07T06:50:32;101617.03;;;8.46;100.00
55291;BME280;41155;39.768;2.712;2023-02-07T06:52:58;101644.00;;;8.77;100.00
55291;BME280;41155;39.768;2.712;2023-02-07T06:55:27;101629.03;;;8.81;100.00
55291;BME280;41155;39.768;2.712;2023-02-07T06:57:53;101628.41;;;8.86;100.00
55291;BME280;41155;39.768;2.712;2023-02-07T07:00:19;101623.84;;;8.87;100.00
55291;BME280;41155;39.768;2.712;2023-02-07T07:02:47;101631.41;;;8.96;100.00
55291;BME280;41155;39.768;2.712;2023-02-07T07:05:12;101617.25;;;9.08;100.00
55291;BME280;41155;39.768;2.712;2023-02-07T07:07:38;101605.75;;;8.94;100.00
55291;BME280;41155;39.768;2.712;2023-02-07T07:10:04;101619.56;;;9.04;100.00
55291;BME280;41155;39.768;2.712;2023-02-07T07:12:29;101619.31;;;8.80;100.00
55291;BME280;41155;39.768;2.712;2023-02-07T07:14:55;101604.25;;;8.73;100.00
55291;BME280;41155;39.768;2.712;2023-02-07T07:17:20;101563.03;;;8.41;100.00
55291;BME280;41155;39.768;2.712;2023-02-07T07:19:46;101616.88;;;8.72;100.00
55291;BME280;41155;39.768;2.712;2023-02-07T07:22:11;101601.59;;;8.66;100.00
55291;BME280;41155;39.768;2.712;2023-02-07T07:24:37;101611.13;;;8.94;100.00
55291;BME280;41155;39.768;2.712;2023-02-07T07:27:02;101611.75;;;8.96;100.00
55291;BME280;41155;39.768;2.712;2023-02-07T07:29:28;101612.19;;;8.93;100.00
55291;BME280;41155;39.768;2.712;2023-02-07T07:31:53;101617.94;;;9.03;100.00
55291;BME280;41155;39.768;2.712;2023-02-07T07:34:19;101629.84;;;9.14;100.00
55291;BME280;41155;39.768;2.712;2023-02-07T07:36:44;101598.38;;;9.08;100.00
55291;BME280;41155;39.768;2.712;2023-02-07T07:39:10;101614.63;;;9.26;100.00
55291;BME280;41155;39.768;2.712;2023-02-07T07:41:36;101605.06;;;9.30;100.00
55291;BME280;41155;39.768;2.712;2023-02-07T07:44:01;101588.59;;;9.13;100.00
55291;BME280;41155;39.768;2.712;2023-02-07T07:46:28;101604.50;;;9.21;100.00
55291;BME280;41155;39.768;2.712;2023-02-07T07:48:53;101564.94;;;8.97;100.00
55291;BME280;41155;39.768;2.712;2023-02-07T07:51:19;101569.88;;;9.00;100.00
55291;BME280;41155;39.768;2.712;2023-02-07T07:53:44;101614.03;;;9.24;100.00
55291;BME280;41155;39.768;2.712;2023-02-07T07:56:10;101611.88;;;9.33;100.00
55291;BME280;41155;39.768;2.712;2023-02-07T07:58:35;101607.78;;;9.48;100.00
55291;BME280;41155;39.768;2.712;2023-02-07T08:01:01;101603.22;;;9.49;100.00
55291;BME280;41155;39.768;2.712;2023-02-07T08:03:26;101605.59;;;9.39;100.00
55291;BME280;41155;39.768;2.712;2023-02-07T08:05:52;101583.59;;;9.42;100.00
55291;BME280;41155;39.768;2.712;2023-02-07T08:08:17;101605.41;;;9.59;100.00
55291;BME280;41155;39.768;2.712;2023-02-07T08:10:44;101599.19;;;9.58;100.00
55291;BME280;41155;39.768;2.712;2023-02-07T08:13:10;101603.00;;;9.69;100.00
55291;BME280;41155;39.768;2.712;2023-02-07T08:15:35;101600.25;;;9.76;100.00
55291;BME280;41155;39.768;2.712;2023-02-07T08:18:01;101605.94;;;9.86;100.00
55291;BME280;41155;39.768;2.712;2023-02-07T08:20:26;101573.88;;;9.78;100.00
55291;BME280;41155;39.768;2.712;2023-02-07T08:22:52;101609.13;;;10.01;100.00
55291;BME280;41155;39.768;2.712;2023-02-07T08:25:18;101592.63;;;9.91;100.00
55291;BME280;41155;39.768;2.712;2023-02-07T08:27:43;101589.72;;;9.92;100.00
55291;BME280;41155;39.768;2.712;2023-02-07T08:30:12;101545.81;;;9.67;100.00
55291;BME280;41155;39.768;2.712;2023-02-07T08:32:40;101600.88;;;9.96;100.00
55291;BME280;41155;39.768;2.712;2023-02-07T08:35:06;101589.38;;;10.01;100.00
55291;BME280;41155;39.768;2.712;2023-02-07T08:37:31;101582.88;;;9.90;100.00
55291;BME280;41155;39.768;2.712;2023-02-07T08:39:57;101596.88;;;10.17;100.00
55291;BME280;41155;39.768;2.712;2023-02-07T08:42:22;101601.50;;;10.47;100.00
55291;BME280;41155;39.768;2.712;2023-02-07T08:44:48;101599.75;;;10.52;100.00
55291;BME280;41155;39.768;2.712;2023-02-07T08:47:15;101588.78;;;10.66;100.00
55291;BME280;41155;39.768;2.712;2023-02-07T08:49:40;101592.09;;;10.79;100.00
55291;BME280;41155;39.768;2.712;2023-02-07T08:52:06;101599.91;;;10.99;100.00
55291;BME280;41155;39.768;2.712;2023-02-07T08:54:32;101594.75;;;11.09;100.00
55291;BME280;41155;39.768;2.712;2023-02-07T08:56:57;101604.88;;;11.26;100.00
55291;BME280;41155;39.768;2.712;2023-02-07T08:59:23;101595.94;;;11.37;100.00
55291;BME280;41155;39.768;2.712;2023-02-07T09:01:48;101600.63;;;11.53;100.00
55291;BME280;41155;39.768;2.712;2023-02-07T09:04:14;101596.88;;;11.54;100.00
55291;BME280;41155;39.768;2.712;2023-02-07T09:06:40;101602.75;;;11.63;100.00
55291;BME280;41155;39.768;2.712;2023-02-07T09:09:06;101612.03;;;11.56;100.00
55291;BME280;41155;39.768;2.712;2023-02-07T09:11:31;101608.16;;;11.28;100.00
55291;BME280;41155;39.768;2.712;2023-02-07T09:13:57;101584.19;;;11.20;100.00
55291;BME280;41155;39.768;2.712;2023-02-07T09:16:22;101604.53;;;11.34;100.00
55291;BME280;41155;39.768;2.712;2023-02-07T09:18:48;101575.34;;;11.13;100.00
55291;BME280;41155;39.768;2.712;2023-02-07T09:21:14;101613.22;;;11.36;100.00
55291;BME280;41155;39.768;2.712;2023-02-07T09:23:40;101607.00;;;11.36;100.00
55291;BME280;41155;39.768;2.712;2023-02-07T09:26:07;101625.91;;;11.36;100.00
55291;BME280;41155;39.768;2.712;2023-02-07T09:28:33;101634.16;;;11.29;100.00
55291;BME280;41155;39.768;2.712;2023-02-07T09:31:06;101577.34;;;11.05;100.00
55291;BME280;41155;39.768;2.712;2023-02-07T09:33:32;101605.34;;;11.46;100.00
55291;BME280;41155;39.768;2.712;2023-02-07T09:35:57;101606.16;;;11.70;100.00
55291;BME280;41155;39.768;2.712;2023-02-07T09:38:22;101620.00;;;11.97;100.00
55291;BME280;41155;39.768;2.712;2023-02-07T09:40:52;101608.72;;;12.12;100.00
55291;BME280;41155;39.768;2.712;2023-02-07T09:43:46;101622.41;;;12.34;100.00
55291;BME280;41155;39.768;2.712;2023-02-07T09:46:21;101617.03;;;12.51;100.00
55291;BME280;41155;39.768;2.712;2023-02-07T09:48:58;101611.13;;;12.83;100.00
55291;BME280;41155;39.768;2.712;2023-02-07T09:51:29;101604.97;;;13.04;100.00
55291;BME280;41155;39.768;2.712;2023-02-07T09:54:11;101610.25;;;13.11;100.00
55291;BME280;41155;39.768;2.712;2023-02-07T09:56:40;101593.22;;;13.49;100.00
55291;BME280;41155;39.768;2.712;2023-02-07T09:59:36;101589.81;;;15.01;100.00
55291;BME280;41155;39.768;2.712;2023-02-07T10:02:10;101590.94;;;15.85;100.00
55291;BME280;41155;39.768;2.712;2023-02-07T10:04:43;101587.34;;;17.60;97.47
55291;BME280;41155;39.768;2.712;2023-02-07T10:07:11;101582.91;;;18.44;88.54
55291;BME280;41155;39.768;2.712;2023-02-07T10:09:40;101584.19;;;19.55;85.26
55291;BME280;41155;39.768;2.712;2023-02-07T10:12:36;101581.31;;;20.37;79.94
55291;BME280;41155;39.768;2.712;2023-02-07T10:20:56;101591.81;;;20.87;73.96
55291;BME280;41155;39.768;2.712;2023-02-07T10:23:42;101587.00;;;22.27;69.21
55291;BME280;41155;39.768;2.712;2023-02-07T10:26:40;101586.94;;;22.54;59.93
55291;BME280;41155;39.768;2.712;2023-02-07T10:29:54;101589.22;;;22.97;64.15
55291;BME280;41155;39.768;2.712;2023-02-07T10:32:25;101599.59;;;23.94;61.47
55291;BME280;41155;39.768;2.712;2023-02-07T10:34:54;101595.31;;;24.80;60.67
55291;BME280;41155;39.768;2.712;2023-02-07T10:37:25;101604.59;;;25.48;54.24
55291;BME280;41155;39.768;2.712;2023-02-07T10:40:03;101597.72;;;26.02;54.76
55291;BME280;41155;39.768;2.712;2023-02-07T10:42:30;101601.63;;;25.62;50.80
55291;BME280;41155;39.768;2.712;2023-02-07T10:44:58;101607.34;;;23.83;43.69
55291;BME280;41155;39.768;2.712;2023-02-07T10:47:23;101616.75;;;23.82;47.83
55291;BME280;41155;39.768;2.712;2023-02-07T10:49:52;101618.00;;;24.16;46.45
55291;BME280;41155;39.768;2.712;2023-02-07T10:52:33;101630.72;;;22.28;43.49
55291;BME280;41155;39.768;2.712;2023-02-07T10:55:04;101634.81;;;22.17;51.49
55291;BME280;41155;39.768;2.712;2023-02-07T10:57:31;101626.63;;;22.40;54.86
55291;BME280;41155;39.768;2.712;2023-02-07T11:02:49;101634.81;;;22.17;54.09
55291;BME280;41155;39.768;2.712;2023-02-07T11:07:58;101641.66;;;19.89;59.98
55291;BME280;41155;39.768;2.712;2023-02-07T11:13:00;101625.53;;;18.50;63.92
55291;BME280;41155;39.768;2.712;2023-02-07T11:15:35;101632.56;;;18.07;65.59
55291;BME280;41155;39.768;2.712;2023-02-07T11:18:02;101635.97;;;17.68;66.45
55291;BME280;41155;39.768;2.712;2023-02-07T11:20:31;101628.38;;;16.99;61.51
55291;BME280;41155;39.768;2.712;2023-02-07T11:22:59;101628.56;;;16.61;67.48
55291;BME280;41155;39.768;2.712;2023-02-07T11:25:35;101636.16;;;16.49;69.19
55291;BME280;41155;39.768;2.712;2023-02-07T11:28:01;101639.88;;;16.27;70.17
55291;BME280;41155;39.768;2.712;2023-02-07T11:30:28;101637.56;;;16.72;68.37
55291;BME280;41155;39.768;2.712;2023-02-07T11:32:59;101632.09;;;16.67;70.30
55291;BME280;41155;39.768;2.712;2023-02-07T11:35:26;101633.06;;;16.25;72.27
55291;BME280;41155;39.768;2.712;2023-02-07T11:38:00;101635.59;;;15.84;72.64
55291;BME280;41155;39.768;2.712;2023-02-07T11:40:44;101634.09;;;15.66;74.65
55291;BME280;41155;39.768;2.712;2023-02-07T11:43:14;101625.63;;;15.20;75.57
55291;BME280;41155;39.768;2.712;2023-02-07T11:45:45;101614.03;;;15.03;78.42
55291;BME280;41155;39.768;2.712;2023-02-07T11:48:37;101610.69;;;14.90;83.30
55291;BME280;41155;39.768;2.712;2023-02-07T11:51:07;101612.13;;;14.71;83.65
55291;BME280;41155;39.768;2.712;2023-02-07T11:53:39;101615.88;;;14.43;87.71
55291;BME280;41155;39.768;2.712;2023-02-07T11:56:19;101594.13;;;14.43;89.35
55291;BME280;41155;39.768;2.712;2023-02-07T11:58:46;101550.75;;;14.26;89.96
55291;BME280;41155;39.768;2.712;2023-02-07T12:01:21;101591.19;;;14.44;88.08
55291;BME280;41155;39.768;2.712;2023-02-07T12:03:56;101591.31;;;14.82;90.06
55291;BME280;41155;39.768;2.712;2023-02-07T12:06:36;101586.38;;;14.79;90.76
55291;BME280;41155;39.768;2.712;2023-02-07T12:09:05;101583.19;;;14.87;90.43
55291;BME280;41155;39.768;2.712;2023-02-07T12:11:36;101580.16;;;14.83;91.07
55291;BME280;41155;39.768;2.712;2023-02-07T12:16:38;101595.50;;;14.67;90.78
55291;BME280;41155;39.768;2.712;2023-02-07T12:19:35;101587.53;;;14.56;93.95
55291;BME280;41155;39.768;2.712;2023-02-07T12:24:36;101578.66;;;14.43;95.59
55291;BME280;41155;39.768;2.712;2023-02-07T12:27:18;101569.03;;;14.58;94.94
55291;BME280;41155;39.768;2.712;2023-02-07T12:32:37;101552.13;;;14.29;92.97
55291;BME280;41155;39.768;2.712;2023-02-07T12:40:30;101557.53;;;14.01;91.01
55291;BME280;41155;39.768;2.712;2023-02-07T12:43:07;101553.88;;;13.91;87.31
55291;BME280;41155;39.768;2.712;2023-02-07T12:50:57;101532.63;;;13.61;83.63
55291;BME280;41155;39.768;2.712;2023-02-07T12:56:18;101559.75;;;13.61;83.58
55291;BME280;41155;39.768;2.712;2023-02-07T12:58:54;101554.91;;;13.85;87.91
55291;BME280;41155;39.768;2.712;2023-02-07T13:01:55;101551.69;;;14.10;83.57
55291;BME280;41155;39.768;2.712;2023-02-07T13:07:38;101544.19;;;13.95;83.98
55291;BME280;41155;39.768;2.712;2023-02-07T13:10:33;101548.53;;;13.96;80.56
55291;BME280;41155;39.768;2.712;2023-02-07T13:16:57;101574.91;;;13.23;72.87
55291;BME280;41155;39.768;2.712;2023-02-07T13:24:05;101592.72;;;12.68;70.45
55291;BME280;41155;39.768;2.712;2023-02-07T13:26:33;101614.88;;;12.65;72.11
55291;BME280;41155;39.768;2.712;2023-02-07T13:29:12;101596.34;;;12.74;69.96
55291;BME280;41155;39.768;2.712;2023-02-07T13:34:14;101588.19;;;12.74;71.14
55291;BME280;41155;39.768;2.712;2023-02-07T13:36:43;101591.09;;;12.55;74.09
55291;BME280;41155;39.768;2.712;2023-02-07T13:42:06;101577.00;;;11.72;79.85
55291;BME280;41155;39.768;2.712;2023-02-07T13:44:46;101590.28;;;11.62;83.22
55291;BME280;41155;39.768;2.712;2023-02-07T13:51:25;101580.16;;;10.57;99.57
55291;BME280;41155;39.768;2.712;2023-02-07T13:56:33;101570.84;;;10.83;100.00
55291;BME280;41155;39.768;2.712;2023-02-07T14:02:25;101583.00;;;10.62;100.00
55291;BME280;41155;39.768;2.712;2023-02-07T14:04:54;101577.56;;;10.50;100.00
55291;BME280;41155;39.768;2.712;2023-02-07T14:07:32;101583.56;;;10.52;100.00
55291;BME280;41155;39.768;2.712;2023-02-07T14:10:00;101565.88;;;10.38;100.00
55291;BME280;41155;39.768;2.712;2023-02-07T14:12:34;101597.19;;;10.57;100.00
55291;BME280;41155;39.768;2.712;2023-02-07T14:21:24;101602.13;;;10.60;100.00
55291;BME280;41155;39.768;2.712;2023-02-07T14:31:59;101595.09;;;11.48;99.99
55291;BME280;41155;39.768;2.712;2023-02-07T14:34:30;101610.84;;;11.28;96.97
55291;BME280;41155;39.768;2.712;2023-02-07T14:36:56;101602.03;;;11.44;96.56
55291;BME280;41155;39.768;2.712;2023-02-07T14:39:26;101612.66;;;11.58;95.70
55291;BME280;41155;39.768;2.712;2023-02-07T14:42:10;101606.28;;;11.52;94.83
55291;BME280;41155;39.768;2.712;2023-02-07T14:44:38;101606.50;;;11.62;95.79